createdAt,value
2023-02-04T00:01:48.912Z,-0.20
2023-02-04T00:06:56.601Z,0.10
2023-02-04T00:12:05.929Z,0.10
2023-02-04T00:17:13.108Z,0.10
2023-02-04T00:22:29.165Z,0.10
2023-02-04T00:27:36.774Z,0.00
2023-02-04T00:32:47.787Z,0.00
2023-02-04T00:37:53.527Z,0.10
2023-02-04T00:42:58.906Z,0.10
2023-02-04T00:48:04.713Z,0.00
2023-02-04T00:53:10.110Z,0.00
2023-02-04T00:58:19.190Z,0.00
2023-02-04T01:03:25.971Z,0.00
2023-02-04T01:08:31.251Z,0.00
2023-02-04T01:13:40.446Z,-0.10
2023-02-04T01:18:45.992Z,-0.10
2023-02-04T01:23:51.935Z,-0.20
2023-02-04T01:28:57.255Z,-0.20
2023-02-04T01:34:21.633Z,-0.20
2023-02-04T01:39:31.076Z,-0.30
2023-02-04T01:44:36.549Z,-0.30
2023-02-04T01:49:52.915Z,-0.30
2023-02-04T01:55:00.227Z,-0.40
2023-02-04T02:00:07.604Z,-0.40
2023-02-04T02:05:35.710Z,-0.50
2023-02-04T02:10:44.715Z,-0.50
2023-02-04T02:15:51.547Z,-0.50
2023-02-04T02:21:00.804Z,-0.60
2023-02-04T02:26:08.210Z,-0.70
2023-02-04T02:36:59.840Z,-0.70
2023-02-04T02:42:05.333Z,-0.60
2023-02-04T02:47:16.931Z,-0.60
2023-02-04T02:52:25.480Z,-0.60
2023-02-04T02:57:32.816Z,-0.60
2023-02-04T03:02:42.170Z,-0.60
2023-02-04T03:07:48.009Z,-0.60
2023-02-04T03:12:53.335Z,-0.60
2023-02-04T03:18:01.657Z,-0.70
2023-02-04T03:23:10.710Z,-0.80
2023-02-04T03:28:17.382Z,-0.80
2023-02-04T03:33:42.866Z,-0.80
2023-02-04T03:38:57.394Z,-0.80
2023-02-04T03:44:13.049Z,-0.70
2023-02-04T03:49:18.789Z,-0.70
2023-02-04T03:54:27.694Z,-0.80
2023-02-04T03:59:39.176Z,-0.90
2023-02-04T04:04:45.737Z,-1.00
2023-02-04T04:09:51.137Z,-1.10
2023-02-04T04:15:00.030Z,-1.30
2023-02-04T04:20:06.253Z,-1.30
2023-02-04T04:30:39.906Z,-1.40
2023-02-04T04:35:45.282Z,-1.50
2023-02-04T04:40:51.047Z,-1.70
2023-02-04T04:45:56.942Z,-1.70
2023-02-04T04:51:10.844Z,-1.70
2023-02-04T04:56:16.534Z,-1.50
2023-02-04T05:01:23.179Z,-1.50
2023-02-04T05:06:31.306Z,-1.30
2023-02-04T05:11:36.685Z,-1.30
2023-02-04T05:16:42.737Z,-1.10
2023-02-04T05:21:54.966Z,-1.00
2023-02-04T05:27:03.761Z,-1.00
2023-02-04T05:32:14.189Z,-1.00
2023-02-04T05:37:29.513Z,-0.90
2023-02-04T05:42:38.944Z,-0.80
2023-02-04T05:47:46.585Z,-0.80
2023-02-04T05:52:55.650Z,-0.70
2023-02-04T05:58:07.255Z,-0.70
2023-02-04T06:03:33.793Z,-0.60
2023-02-04T06:08:45.197Z,-0.60
2023-02-04T06:13:50.579Z,-0.60
2023-02-04T06:19:00.466Z,-0.60
2023-02-04T06:24:20.899Z,-0.60
2023-02-04T06:29:27.552Z,-0.60
2023-02-04T06:34:38.064Z,-0.60
2023-02-04T06:39:49.688Z,-0.60
2023-02-04T06:45:00.712Z,-0.60
2023-02-04T06:50:30.157Z,-0.50
2023-02-04T06:55:42.524Z,-0.50
2023-02-04T07:00:48.293Z,-0.40
2023-02-04T07:05:58.740Z,-0.30
2023-02-04T07:11:08.326Z,-0.30
2023-02-04T07:16:27.406Z,-0.30
2023-02-04T07:21:46.036Z,-0.30
2023-02-04T07:27:02.620Z,-0.20
2023-02-04T07:32:08.989Z,-0.10
2023-02-04T07:37:24.074Z,0.10
2023-02-04T07:42:36.063Z,0.20
2023-02-04T07:48:00.115Z,0.30
2023-02-04T07:53:09.634Z,0.30
2023-02-04T07:58:16.557Z,0.10
2023-02-04T08:03:29.182Z,0.10
2023-02-04T08:08:54.986Z,0.30
2023-02-04T08:14:11.587Z,0.20
2023-02-04T08:19:18.535Z,0.20
2023-02-04T08:24:24.589Z,0.40
2023-02-04T08:29:39.674Z,0.80
2023-02-04T08:34:47.662Z,0.70
2023-02-04T08:39:56.622Z,0.60
2023-02-04T08:45:09.800Z,1.00
2023-02-04T08:50:22.324Z,2.30
2023-02-04T08:55:32.532Z,2.90
2023-02-04T09:00:39.367Z,2.60
2023-02-04T09:05:48.775Z,3.10
2023-02-04T09:10:57.543Z,3.40
2023-02-04T09:16:27.342Z,3.80
2023-02-04T09:21:49.989Z,4.20
2023-02-04T09:26:55.728Z,3.80
2023-02-04T09:32:02.428Z,3.70
2023-02-04T09:37:11.092Z,3.40
2023-02-04T09:42:23.853Z,3.70
2023-02-04T09:47:32.863Z,3.70
2023-02-04T09:52:53.010Z,3.70
2023-02-04T09:58:00.897Z,4.10
2023-02-04T10:03:09.206Z,3.80
2023-02-04T10:08:29.313Z,3.80
2023-02-04T10:13:38.909Z,3.70
2023-02-04T10:18:45.152Z,3.80
2023-02-04T10:30:02.117Z,3.50
2023-02-04T10:35:09.950Z,3.90
2023-02-04T10:40:43.868Z,3.70
2023-02-04T10:45:57.812Z,4.40
2023-02-04T10:51:03.264Z,3.40
2023-02-04T10:56:22.988Z,3.00
2023-02-04T11:01:30.857Z,2.80
2023-02-04T11:06:38.232Z,2.70
2023-02-04T11:11:51.546Z,2.90
2023-02-04T11:17:01.775Z,2.90
2023-02-04T11:22:25.558Z,2.50
2023-02-04T11:27:43.785Z,2.20
2023-02-04T11:32:57.955Z,2.10
2023-02-04T11:38:05.047Z,2.20
2023-02-04T11:43:17.192Z,2.30
2023-02-04T11:48:44.062Z,2.10
2023-02-04T11:54:03.693Z,2.00
2023-02-04T11:59:16.579Z,2.40
2023-02-04T12:04:26.307Z,2.80
2023-02-04T12:09:33.305Z,2.60
2023-02-04T12:14:45.787Z,2.20
2023-02-04T12:20:05.750Z,2.20
2023-02-04T12:25:12.751Z,2.20
2023-02-04T12:30:22.439Z,2.10
2023-02-04T12:35:27.819Z,2.20
2023-02-04T12:40:38.068Z,2.10
2023-02-04T12:45:45.882Z,2.10
2023-02-04T12:50:53.179Z,2.20
2023-02-04T12:56:00.342Z,2.10
2023-02-04T13:01:06.796Z,1.80
2023-02-04T13:06:12.404Z,1.70
2023-02-04T13:11:17.808Z,1.80
2023-02-04T13:31:37.439Z,1.50
2023-02-04T13:36:44.404Z,1.50
2023-02-04T13:41:51.340Z,1.40
2023-02-04T13:46:56.717Z,1.30
2023-02-04T13:52:02.283Z,0.90
2023-02-04T13:57:10.835Z,0.90
2023-02-04T14:02:16.293Z,0.90
2023-02-04T14:07:22.198Z,0.90
2023-02-04T14:12:36.646Z,0.90
2023-02-04T14:17:42.492Z,1.10
2023-02-04T14:22:47.872Z,1.20
2023-02-04T14:27:57.718Z,1.30
2023-02-04T14:33:03.519Z,1.20
2023-02-04T14:38:09.474Z,1.00
2023-02-04T14:43:14.960Z,0.80
2023-02-04T14:48:21.897Z,0.60
2023-02-04T14:53:27.143Z,0.40
2023-02-04T14:58:32.437Z,0.30
2023-02-04T15:03:38.737Z,0.20
2023-02-04T15:08:45.359Z,0.10
2023-02-04T15:13:50.661Z,0.00
2023-02-04T15:18:56.431Z,-0.20
2023-02-04T15:24:01.797Z,-0.30
2023-02-04T15:29:07.808Z,-0.40
2023-02-04T15:34:13.105Z,-0.40
2023-02-04T15:39:18.434Z,-0.50
2023-02-04T15:44:24.468Z,-0.60
2023-02-04T15:49:29.812Z,-0.60
2023-02-04T15:54:35.163Z,-0.60
2023-02-04T15:59:40.392Z,-0.70
2023-02-04T16:04:47.475Z,-0.80
2023-02-04T16:09:52.745Z,-0.90
2023-02-04T16:14:58.019Z,-0.90
2023-02-04T16:20:04.615Z,-0.90
2023-02-04T16:25:10.072Z,-1.00
2023-02-04T16:30:15.798Z,-0.90
2023-02-04T16:35:21.069Z,-0.70
2023-02-04T16:40:26.178Z,-0.70
2023-02-04T16:45:31.823Z,-0.70
2023-02-04T16:50:37.513Z,-0.70
2023-02-04T16:55:44.427Z,-0.70
2023-02-04T17:00:50.400Z,-0.70
2023-02-04T17:05:56.259Z,-0.60
2023-02-04T17:11:19.425Z,-0.60
2023-02-04T17:16:24.817Z,-0.50
2023-02-04T17:21:31.620Z,-0.50
2023-02-04T17:26:39.826Z,-0.50
2023-02-04T17:31:45.393Z,-0.40
2023-02-04T17:36:50.728Z,-0.50
2023-02-04T17:41:55.997Z,-0.60
2023-02-04T17:47:01.416Z,-0.60
2023-02-04T17:52:07.123Z,-0.60
2023-02-04T17:57:20.675Z,-0.50
2023-02-04T18:02:31.912Z,-0.60
2023-02-04T18:07:41.755Z,-0.60
2023-02-04T18:12:49.706Z,-0.60
2023-02-04T18:18:00.612Z,-0.50
2023-02-04T18:23:09.116Z,-0.60
2023-02-04T18:28:21.834Z,-0.50
2023-02-04T18:33:28.810Z,-0.60
2023-02-04T18:38:40.598Z,-0.60
2023-02-04T18:43:50.468Z,-0.70
2023-02-04T18:49:19.909Z,-0.80
2023-02-04T18:54:28.160Z,-0.70
2023-02-04T18:59:33.390Z,-0.70
2023-02-04T19:04:38.727Z,-0.70
2023-02-04T19:09:44.471Z,-0.80
2023-02-04T19:14:54.631Z,-0.70
2023-02-04T19:20:16.009Z,-0.80
2023-02-04T19:25:31.072Z,-0.80
2023-02-04T19:30:48.263Z,-0.80
2023-02-04T19:41:52.460Z,-0.80
2023-02-04T19:46:58.714Z,-0.80
2023-02-04T19:52:08.019Z,-0.90
2023-02-04T19:57:30.954Z,-0.90
2023-02-04T20:02:40.710Z,-0.90
2023-02-04T20:07:46.015Z,-0.90
2023-02-04T20:12:54.193Z,-0.90
2023-02-04T20:17:59.809Z,-0.90
2023-02-04T20:23:16.817Z,-0.90
2023-02-04T20:28:29.764Z,-0.90
2023-02-04T20:33:38.315Z,-0.90
2023-02-04T20:38:43.540Z,-1.00
2023-02-04T20:43:52.166Z,-1.00
2023-02-04T20:48:58.019Z,-1.00
2023-02-04T20:54:06.027Z,-1.00
2023-02-04T20:59:19.667Z,-1.00
2023-02-04T21:04:37.210Z,-1.00
2023-02-04T21:09:46.151Z,-1.00
2023-02-04T21:14:52.402Z,-1.00
2023-02-04T21:19:58.080Z,-1.10
2023-02-04T21:25:04.647Z,-1.20
2023-02-04T21:30:28.240Z,-1.40
2023-02-04T21:35:44.274Z,-1.40
2023-02-04T21:40:55.769Z,-1.50
2023-02-04T21:46:01.100Z,-1.50
2023-02-04T21:51:06.689Z,-1.50
2023-02-04T21:56:12.348Z,-1.60
2023-02-04T22:01:17.549Z,-1.60
2023-02-04T22:06:24.099Z,-1.60
2023-02-04T22:11:29.242Z,-1.70
2023-02-04T22:16:35.127Z,-1.80
2023-02-04T22:21:40.576Z,-1.90
2023-02-04T22:26:45.787Z,-2.10
2023-02-04T22:31:52.054Z,-2.20
2023-02-04T22:36:57.185Z,-2.30
2023-02-04T22:42:02.508Z,-2.50
2023-02-04T22:47:07.798Z,-2.60
2023-02-04T22:52:13.565Z,-2.50
2023-02-04T22:57:18.976Z,-2.60
2023-02-04T23:02:24.254Z,-2.80
2023-02-04T23:07:29.471Z,-2.90
2023-02-04T23:12:34.756Z,-3.10
2023-02-04T23:17:40.614Z,-3.20
2023-02-04T23:22:45.966Z,-3.30
2023-02-04T23:27:51.316Z,-3.40
2023-02-04T23:32:56.869Z,-3.60
2023-02-04T23:38:03.511Z,-3.70
2023-02-04T23:43:10.771Z,-3.80
2023-02-04T23:48:15.792Z,-3.80
2023-02-04T23:53:21.024Z,-3.90
2023-02-04T23:58:26.173Z,-3.80
